sensor_id;sensor_type;location;lat;lon;timestamp;P1;P2;P0
66155;PMS5003;52957;50.848;20.656;2024-03-25T00:00:02;249;206;108
66155;PMS5003;52957;50.848;20.656;2024-03-25T00:10:04;132;117;72
66155;PMS5003;52957;50.848;20.656;2024-03-25T00:20:18;132;117;72
66155;PMS5003;52957;50.848;20.656;2024-03-25T00:30:12;132;117;72
66155;PMS5003;52957;50.848;20.656;2024-03-25T00:40:17;262;220;126
66155;PMS5003;52957;50.848;20.656;2024-03-25T00:50:08;262;220;126
66155;PMS5003;52957;50.848;20.656;2024-03-25T01:00:10;262;220;126
66155;PMS5003;52957;50.848;20.656;2024-03-25T01:10:15;188;164;88
66155;PMS5003;52957;50.848;20.656;2024-03-25T01:20:10;188;164;88
66155;PMS5003;52957;50.848;20.656;2024-03-25T01:30:16;188;164;88
66155;PMS5003;52957;50.848;20.656;2024-03-25T01:40:01;228;204;116
66155;PMS5003;52957;50.848;20.656;2024-03-25T01:50:04;228;204;116
66155;PMS5003;52957;50.848;20.656;2024-03-25T02:00:23;228;204;116
66155;PMS5003;52957;50.848;20.656;2024-03-25T02:10:03;170;147;72
66155;PMS5003;52957;50.848;20.656;2024-03-25T02:20:19;170;147;72
66155;PMS5003;52957;50.848;20.656;2024-03-25T02:30:02;170;147;72
66155;PMS5003;52957;50.848;20.656;2024-03-25T02:40:10;144;130;73
66155;PMS5003;52957;50.848;20.656;2024-03-25T02:50:10;144;130;73
66155;PMS5003;52957;50.848;20.656;2024-03-25T03:00:02;144;130;73
66155;PMS5003;52957;50.848;20.656;2024-03-25T03:10:10;127;110;58
66155;PMS5003;52957;50.848;20.656;2024-03-25T03:20:02;127;110;58
66155;PMS5003;52957;50.848;20.656;2024-03-25T03:30:16;127;110;58
66155;PMS5003;52957;50.848;20.656;2024-03-25T03:40:18;105;97;60
66155;PMS5003;52957;50.848;20.656;2024-03-25T03:50:02;105;97;60
66155;PMS5003;52957;50.848;20.656;2024-03-25T04:00:18;105;97;60
66155;PMS5003;52957;50.848;20.656;2024-03-25T04:10:02;88;76;51
66155;PMS5003;52957;50.848;20.656;2024-03-25T04:20:19;88;76;51
66155;PMS5003;52957;50.848;20.656;2024-03-25T04:30:15;88;76;51
66155;PMS5003;52957;50.848;20.656;2024-03-25T04:40:15;99;87;55
66155;PMS5003;52957;50.848;20.656;2024-03-25T04:50:15;99;87;55
66155;PMS5003;52957;50.848;20.656;2024-03-25T05:00:11;99;87;55
66155;PMS5003;52957;50.848;20.656;2024-03-25T05:10:10;104;93;51
66155;PMS5003;52957;50.848;20.656;2024-03-25T05:20:17;104;93;51
66155;PMS5003;52957;50.848;20.656;2024-03-25T05:30:06;104;93;51
66155;PMS5003;52957;50.848;20.656;2024-03-25T05:40:15;80;74;43
66155;PMS5003;52957;50.848;20.656;2024-03-25T05:50:08;80;74;43
66155;PMS5003;52957;50.848;20.656;2024-03-25T06:00:02;80;74;43
66155;PMS5003;52957;50.848;20.656;2024-03-25T06:10:10;104;94;50
66155;PMS5003;52957;50.848;20.656;2024-03-25T06:20:03;104;94;50
66155;PMS5003;52957;50.848;20.656;2024-03-25T06:40:07;76;70;42
66155;PMS5003;52957;50.848;20.656;2024-03-25T06:50:14;76;70;42
66155;PMS5003;52957;50.848;20.656;2024-03-25T07:00:22;76;70;42
66155;PMS5003;52957;50.848;20.656;2024-03-25T07:10:12;47;40;24
66155;PMS5003;52957;50.848;20.656;2024-03-25T07:20:11;47;40;24
66155;PMS5003;52957;50.848;20.656;2024-03-25T07:30:17;47;40;24
66155;PMS5003;52957;50.848;20.656;2024-03-25T07:40:17;40;38;23
66155;PMS5003;52957;50.848;20.656;2024-03-25T07:50:02;40;38;23
66155;PMS5003;52957;50.848;20.656;2024-03-25T08:00:15;40;38;23
66155;PMS5003;52957;50.848;20.656;2024-03-25T08:10:04;42;39;27
66155;PMS5003;52957;50.848;20.656;2024-03-25T08:20:11;42;39;27
66155;PMS5003;52957;50.848;20.656;2024-03-25T08:30:12;42;39;27
66155;PMS5003;52957;50.848;20.656;2024-03-25T08:40:13;47;35;24
66155;PMS5003;52957;50.848;20.656;2024-03-25T09:00:24;47;35;24
66155;PMS5003;52957;50.848;20.656;2024-03-25T09:20:22;37;37;19
66155;PMS5003;52957;50.848;20.656;2024-03-25T09:30:06;37;37;19
66155;PMS5003;52957;50.848;20.656;2024-03-25T09:40:18;24;22;12
66155;PMS5003;52957;50.848;20.656;2024-03-25T09:50:02;24;22;12
66155;PMS5003;52957;50.848;20.656;2024-03-25T10:00:19;24;22;12
66155;PMS5003;52957;50.848;20.656;2024-03-25T10:10:18;51;49;24
66155;PMS5003;52957;50.848;20.656;2024-03-25T10:20:13;51;49;24
66155;PMS5003;52957;50.848;20.656;2024-03-25T10:30:05;51;49;24
66155;PMS5003;52957;50.848;20.656;2024-03-25T10:40:18;47;42;26
66155;PMS5003;52957;50.848;20.656;2024-03-25T10:50:26;47;42;26
66155;PMS5003;52957;50.848;20.656;2024-03-25T11:00:17;47;42;26
66155;PMS5003;52957;50.848;20.656;2024-03-25T11:10:14;32;28;19
66155;PMS5003;52957;50.848;20.656;2024-03-25T11:20:21;32;28;19
66155;PMS5003;52957;50.848;20.656;2024-03-25T11:30:05;32;28;19
66155;PMS5003;52957;50.848;20.656;2024-03-25T11:50:07;11;11;3
66155;PMS5003;52957;50.848;20.656;2024-03-25T12:00:18;11;11;3
66155;PMS5003;52957;50.848;20.656;2024-03-25T12:20:20;10;10;8
66155;PMS5003;52957;50.848;20.656;2024-03-25T12:30:13;10;10;8
66155;PMS5003;52957;50.848;20.656;2024-03-25T12:50:11;6;6;5
66155;PMS5003;52957;50.848;20.656;2024-03-25T13:00:18;6;6;5
66155;PMS5003;52957;50.848;20.656;2024-03-25T13:10:08;14;12;11
66155;PMS5003;52957;50.848;20.656;2024-03-25T13:30:15;14;12;11
66155;PMS5003;52957;50.848;20.656;2024-03-25T13:40:03;19;18;11
66155;PMS5003;52957;50.848;20.656;2024-03-25T13:50:14;19;18;11
66155;PMS5003;52957;50.848;20.656;2024-03-25T14:00:22;19;18;11
66155;PMS5003;52957;50.848;20.656;2024-03-25T14:10:06;34;32;13
66155;PMS5003;52957;50.848;20.656;2024-03-25T14:20:09;34;32;13
66155;PMS5003;52957;50.848;20.656;2024-03-25T14:30:08;34;32;13
66155;PMS5003;52957;50.848;20.656;2024-03-25T14:50:16;54;52;36
66155;PMS5003;52957;50.848;20.656;2024-03-25T15:00:02;54;52;36
66155;PMS5003;52957;50.848;20.656;2024-03-25T15:10:18;16;16;8
66155;PMS5003;52957;50.848;20.656;2024-03-25T15:20:10;16;16;8
66155;PMS5003;52957;50.848;20.656;2024-03-25T15:30:14;16;16;8
66155;PMS5003;52957;50.848;20.656;2024-03-25T15:50:07;15;13;8
66155;PMS5003;52957;50.848;20.656;2024-03-25T16:00:08;15;13;8
66155;PMS5003;52957;50.848;20.656;2024-03-25T16:10:02;15;13;8
66155;PMS5003;52957;50.848;20.656;2024-03-25T16:20:07;31;26;16
66155;PMS5003;52957;50.848;20.656;2024-03-25T16:30:12;31;26;16
66155;PMS5003;52957;50.848;20.656;2024-03-25T16:40:13;31;26;16
66155;PMS5003;52957;50.848;20.656;2024-03-25T16:50:09;84;74;47
66155;PMS5003;52957;50.848;20.656;2024-03-25T17:00:08;84;74;47
66155;PMS5003;52957;50.848;20.656;2024-03-25T17:10:01;84;74;47
66155;PMS5003;52957;50.848;20.656;2024-03-25T17:20:21;73;66;43
66155;PMS5003;52957;50.848;20.656;2024-03-25T17:30:04;73;66;43
66155;PMS5003;52957;50.848;20.656;2024-03-25T17:40:13;73;66;43
66155;PMS5003;52957;50.848;20.656;2024-03-25T17:50:13;64;57;36
66155;PMS5003;52957;50.848;20.656;2024-03-25T18:00:19;64;57;36
66155;PMS5003;52957;50.848;20.656;2024-03-25T18:10:16;64;57;36
66155;PMS5003;52957;50.848;20.656;2024-03-25T18:20:11;101;88;56
66155;PMS5003;52957;50.848;20.656;2024-03-25T18:30:02;101;88;56
66155;PMS5003;52957;50.848;20.656;2024-03-25T18:40:06;101;88;56
66155;PMS5003;52957;50.848;20.656;2024-03-25T18:50:06;129;119;62
66155;PMS5003;52957;50.848;20.656;2024-03-25T19:00:19;129;119;62
66155;PMS5003;52957;50.848;20.656;2024-03-25T19:10:13;129;119;62
66155;PMS5003;52957;50.848;20.656;2024-03-25T19:20:15;235;223;127
66155;PMS5003;52957;50.848;20.656;2024-03-25T19:30:17;235;223;127
66155;PMS5003;52957;50.848;20.656;2024-03-25T19:40:17;235;223;127
66155;PMS5003;52957;50.848;20.656;2024-03-25T19:50:06;457;392;215
66155;PMS5003;52957;50.848;20.656;2024-03-25T20:00:19;457;392;215
66155;PMS5003;52957;50.848;20.656;2024-03-25T20:10:08;457;392;215
66155;PMS5003;52957;50.848;20.656;2024-03-25T20:20:06;425;389;223
66155;PMS5003;52957;50.848;20.656;2024-03-25T20:30:03;425;389;223
66155;PMS5003;52957;50.848;20.656;2024-03-25T20:40:09;425;389;223
66155;PMS5003;52957;50.848;20.656;2024-03-25T20:50:12;436;373;213
66155;PMS5003;52957;50.848;20.656;2024-03-25T21:00:19;436;373;213
66155;PMS5003;52957;50.848;20.656;2024-03-25T21:10:08;436;373;213
66155;PMS5003;52957;50.848;20.656;2024-03-25T21:20:18;453;403;219
66155;PMS5003;52957;50.848;20.656;2024-03-25T21:30:09;453;403;219
66155;PMS5003;52957;50.848;20.656;2024-03-25T21:40:02;453;403;219
66155;PMS5003;52957;50.848;20.656;2024-03-25T21:50:02;346;313;176
66155;PMS5003;52957;50.848;20.656;2024-03-25T22:00:05;346;313;176
66155;PMS5003;52957;50.848;20.656;2024-03-25T22:10:04;346;313;176
66155;PMS5003;52957;50.848;20.656;2024-03-25T22:20:10;264;231;131
66155;PMS5003;52957;50.848;20.656;2024-03-25T22:30:12;264;231;131
66155;PMS5003;52957;50.848;20.656;2024-03-25T22:40:05;264;231;131
66155;PMS5003;52957;50.848;20.656;2024-03-25T22:50:08;365;326;182
66155;PMS5003;52957;50.848;20.656;2024-03-25T23:00:14;365;326;182
66155;PMS5003;52957;50.848;20.656;2024-03-25T23:10:05;279;237;122
66155;PMS5003;52957;50.848;20.656;2024-03-25T23:20:09;279;237;122
66155;PMS5003;52957;50.848;20.656;2024-03-25T23:30:09;279;237;122
66155;PMS5003;52957;50.848;20.656;2024-03-25T23:40:04;169;153;73
66155;PMS5003;52957;50.848;20.656;2024-03-25T23:50:07;169;153;73
